createdAt,value
2022-10-22T00:01:28.592Z,99767.81
2022-10-22T00:03:30.696Z,99765.97
2022-10-22T00:05:32.575Z,99760.13
2022-10-22T00:07:34.763Z,99762.75
2022-10-22T00:09:36.649Z,99758.28
2022-10-22T00:11:39.136Z,99756.34
2022-10-22T00:13:41.695Z,99754.91
2022-10-22T00:15:43.656Z,99760.16
2022-10-22T00:17:45.610Z,99757.56
2022-10-22T00:19:47.573Z,99757.41
2022-10-22T00:21:49.709Z,99754.66
2022-10-22T00:23:51.655Z,99757.47
2022-10-22T00:25:54.093Z,99748.78
2022-10-22T00:27:56.162Z,99755.72
2022-10-22T00:29:58.048Z,99749.47
2022-10-22T00:31:59.976Z,99744.00
2022-10-22T00:34:02.586Z,99744.81
2022-10-22T00:36:04.752Z,99739.16
2022-10-22T00:38:06.524Z,99745.63
2022-10-22T00:40:09.499Z,99736.72
2022-10-22T00:42:20.496Z,99738.34
2022-10-22T00:44:59.450Z,99735.03
2022-10-22T00:47:01.517Z,99731.28
2022-10-22T00:49:05.110Z,99735.78
2022-10-22T00:51:09.460Z,99727.47
2022-10-22T00:53:15.581Z,99729.31
2022-10-22T00:55:19.102Z,99734.56
2022-10-22T00:57:21.435Z,99736.03
2022-10-22T00:59:23.439Z,99731.53
2022-10-22T01:01:28.952Z,99735.31
2022-10-22T01:03:32.328Z,99733.53
2022-10-22T01:05:43.172Z,99724.69
2022-10-22T01:07:49.597Z,99724.44
2022-10-22T01:10:08.531Z,99731.06
2022-10-22T01:12:22.430Z,99732.00
2022-10-22T01:14:32.822Z,99734.09
2022-10-22T01:16:54.186Z,99731.84
2022-10-22T01:19:42.832Z,99734.69
2022-10-22T01:21:51.301Z,99738.00
2022-10-22T01:24:30.928Z,99733.63
2022-10-22T01:26:49.947Z,99725.72
2022-10-22T01:29:03.048Z,99724.78
2022-10-22T01:31:07.579Z,99724.59
2022-10-22T01:33:12.440Z,99720.88
2022-10-22T01:35:19.780Z,99721.88
2022-10-22T01:37:26.286Z,99721.84
2022-10-22T01:39:30.960Z,99718.00
2022-10-22T01:41:34.189Z,99723.38
2022-10-22T01:43:36.127Z,99711.06
2022-10-22T01:45:46.740Z,99714.75
2022-10-22T01:48:04.162Z,99710.38
2022-10-22T01:50:20.206Z,99714.75
2022-10-22T01:52:51.653Z,99707.00
2022-10-22T01:55:30.580Z,99709.50
2022-10-22T01:57:35.806Z,99700.34
2022-10-22T02:00:06.558Z,99696.63
2022-10-22T02:02:19.980Z,99688.63
2022-10-22T02:04:30.785Z,99689.56
2022-10-22T02:06:34.231Z,99686.03
2022-10-22T02:08:37.281Z,99680.66
2022-10-22T02:10:42.887Z,99687.94
2022-10-22T02:12:48.756Z,99681.47
2022-10-22T02:18:49.821Z,99679.06
2022-10-22T02:20:51.930Z,99685.16
2022-10-22T02:22:54.320Z,99679.59
2022-10-22T02:24:56.983Z,99689.22
2022-10-22T02:27:12.229Z,99695.63
2022-10-22T02:29:15.774Z,99694.59
2022-10-22T02:31:23.718Z,99693.88
2022-10-22T02:33:34.741Z,99695.75
2022-10-22T02:35:38.907Z,99695.75
2022-10-22T02:37:41.839Z,99701.16
2022-10-22T02:39:45.092Z,99707.41
2022-10-22T02:41:47.231Z,99698.31
2022-10-22T02:43:55.045Z,99699.47
2022-10-22T02:45:57.109Z,99696.63
2022-10-22T02:47:59.003Z,99699.19
2022-10-22T02:50:01.061Z,99701.09
2022-10-22T02:52:03.114Z,99697.50
2022-10-22T02:54:05.208Z,99697.38
2022-10-22T02:56:07.691Z,99708.94
2022-10-22T02:58:09.599Z,99710.09
2022-10-22T03:00:12.416Z,99715.56
2022-10-22T03:02:14.359Z,99710.09
2022-10-22T03:04:16.256Z,99713.66
2022-10-22T03:06:18.179Z,99712.66
2022-10-22T03:08:20.403Z,99711.66
2022-10-22T03:10:22.428Z,99715.16
2022-10-22T03:12:24.292Z,99709.75
2022-10-22T03:14:26.230Z,99714.16
2022-10-22T03:16:28.153Z,99715.16
2022-10-22T03:18:30.488Z,99721.41
2022-10-22T03:20:32.432Z,99722.38
2022-10-22T03:22:35.752Z,99721.66
2022-10-22T03:25:07.639Z,99722.75
2022-10-22T03:27:10.681Z,99724.34
2022-10-22T03:29:14.728Z,99732.34
2022-10-22T03:31:16.827Z,99733.22
2022-10-22T03:33:18.773Z,99725.22
2022-10-22T03:35:21.269Z,99731.59
2022-10-22T03:37:25.526Z,99731.66
2022-10-22T03:39:29.722Z,99722.75
2022-10-22T03:41:31.896Z,99724.66
2022-10-22T03:43:38.142Z,99727.56
2022-10-22T03:45:40.448Z,99719.53
2022-10-22T03:47:42.512Z,99724.91
2022-10-22T03:49:44.540Z,99726.75
2022-10-22T03:51:46.314Z,99719.63
2022-10-22T03:53:48.246Z,99720.47
2022-10-22T03:55:51.017Z,99723.31
2022-10-22T03:57:53.133Z,99729.81
2022-10-22T03:59:54.964Z,99721.06
2022-10-22T04:01:56.765Z,99725.44
2022-10-22T04:03:59.226Z,99712.91
2022-10-22T04:06:09.521Z,99712.25
2022-10-22T04:08:11.436Z,99708.53
2022-10-22T04:10:13.348Z,99699.72
2022-10-22T04:12:15.237Z,99703.47
2022-10-22T04:14:17.187Z,99701.59
2022-10-22T04:16:30.983Z,99700.97
2022-10-22T04:18:32.965Z,99704.47
2022-10-22T04:20:34.996Z,99699.28
2022-10-22T04:22:37.198Z,99699.22
2022-10-22T04:24:39.154Z,99700.09
2022-10-22T04:26:41.466Z,99693.84
2022-10-22T04:32:42.901Z,99690.34
2022-10-22T04:34:44.868Z,99696.00
2022-10-22T04:36:46.840Z,99693.03
2022-10-22T04:38:53.653Z,99697.88
2022-10-22T04:40:55.496Z,99691.66
2022-10-22T04:42:57.325Z,99699.75
2022-10-22T04:44:59.369Z,99702.47
2022-10-22T04:47:01.496Z,99700.63
2022-10-22T04:49:04.798Z,99703.25
2022-10-22T04:51:09.099Z,99707.81
2022-10-22T04:53:11.551Z,99713.34
2022-10-22T04:55:13.359Z,99711.66
2022-10-22T04:57:15.231Z,99708.00
2022-10-22T04:59:17.089Z,99708.13
2022-10-22T05:01:20.858Z,99706.31
2022-10-22T05:03:25.629Z,99714.94
2022-10-22T05:05:27.541Z,99706.88
2022-10-22T05:07:29.359Z,99710.00
2022-10-22T05:09:31.738Z,99708.31
2022-10-22T05:11:37.059Z,99705.81
2022-10-22T05:13:39.008Z,99702.94
2022-10-22T05:15:41.150Z,99705.63
2022-10-22T05:17:43.447Z,99709.13
2022-10-22T05:19:45.535Z,99704.75
2022-10-22T05:21:47.434Z,99709.38
2022-10-22T05:23:50.876Z,99715.63
2022-10-22T05:25:52.631Z,99713.91
2022-10-22T05:27:57.212Z,99715.63
2022-10-22T05:30:01.734Z,99720.09
2022-10-22T05:32:03.697Z,99718.28
2022-10-22T05:34:05.453Z,99715.53
2022-10-22T05:36:08.998Z,99717.22
2022-10-22T05:38:11.480Z,99722.38
2022-10-22T05:40:26.625Z,99721.19
2022-10-22T05:42:33.533Z,99714.13
2022-10-22T05:44:35.587Z,99717.50
2022-10-22T05:46:37.589Z,99706.38
2022-10-22T05:48:39.798Z,99706.88
2022-10-22T05:50:42.212Z,99704.56
2022-10-22T05:52:44.089Z,99703.44
2022-10-22T05:54:46.055Z,99706.88
2022-10-22T05:56:48.418Z,99703.63
2022-10-22T05:58:51.272Z,99711.38
2022-10-22T06:00:53.179Z,99711.69
2022-10-22T06:02:55.273Z,99720.22
2022-10-22T06:04:57.326Z,99716.13
2022-10-22T06:07:02.526Z,99721.78
2022-10-22T06:09:27.465Z,99719.38
2022-10-22T06:11:32.523Z,99724.03
2022-10-22T06:13:37.029Z,99726.94
2022-10-22T06:15:38.949Z,99730.78
2022-10-22T06:17:40.736Z,99728.22
2022-10-22T06:19:42.886Z,99730.06
2022-10-22T06:21:45.482Z,99734.75
2022-10-22T06:23:49.634Z,99721.50
2022-10-22T06:26:00.982Z,99728.81
2022-10-22T06:28:02.774Z,99725.47
2022-10-22T06:30:04.998Z,99721.16
2022-10-22T06:32:06.735Z,99733.19
2022-10-22T06:34:12.201Z,99737.06
2022-10-22T06:36:20.171Z,99735.50
2022-10-22T06:38:22.299Z,99736.56
2022-10-22T06:40:24.930Z,99735.91
2022-10-22T06:42:28.760Z,99741.38
2022-10-22T06:44:30.915Z,99752.81
2022-10-22T06:46:32.920Z,99745.56
2022-10-22T06:48:37.390Z,99758.31
2022-10-22T06:50:39.534Z,99750.06
2022-10-22T06:52:41.951Z,99756.44
2022-10-22T06:54:43.908Z,99756.31
2022-10-22T06:56:46.109Z,99756.34
2022-10-22T06:58:49.055Z,99763.56
2022-10-22T07:01:01.008Z,99753.88
2022-10-22T07:03:02.911Z,99752.06
2022-10-22T07:05:05.174Z,99753.22
2022-10-22T07:07:07.670Z,99754.47
2022-10-22T07:09:09.675Z,99754.38
2022-10-22T07:11:20.792Z,99757.19
2022-10-22T07:13:23.255Z,99759.06
2022-10-22T07:15:25.475Z,99760.97
2022-10-22T07:17:27.522Z,99765.59
2022-10-22T07:19:29.652Z,99761.41
2022-10-22T07:21:32.382Z,99759.81
2022-10-22T07:23:34.686Z,99753.94
2022-10-22T07:25:36.804Z,99758.56
2022-10-22T07:27:39.275Z,99755.91
2022-10-22T07:29:44.266Z,99749.84
2022-10-22T07:31:46.323Z,99758.38
2022-10-22T07:33:48.252Z,99757.72
2022-10-22T07:35:50.282Z,99751.88
2022-10-22T07:37:52.599Z,99756.00
2022-10-22T07:39:54.759Z,99761.78
2022-10-22T07:41:56.968Z,99768.94
2022-10-22T07:43:59.014Z,99768.88
2022-10-22T07:46:02.902Z,99777.25
2022-10-22T07:48:05.370Z,99790.97
2022-10-22T07:50:08.161Z,99781.94
2022-10-22T07:52:10.298Z,99785.63
2022-10-22T07:54:12.641Z,99790.88
2022-10-22T07:56:14.715Z,99782.56
2022-10-22T07:58:20.567Z,99783.47
2022-10-22T08:00:25.280Z,99775.63
2022-10-22T08:02:29.936Z,99786.94
2022-10-22T08:04:32.114Z,99777.81
2022-10-22T08:06:35.019Z,99779.66
2022-10-22T08:08:37.172Z,99783.13
2022-10-22T08:10:41.322Z,99779.53
2022-10-22T08:12:43.859Z,99775.41
2022-10-22T08:14:46.114Z,99777.34
2022-10-22T08:16:48.303Z,99771.03
2022-10-22T08:18:51.271Z,99772.34
2022-10-22T08:20:54.054Z,99773.44
2022-10-22T08:22:56.333Z,99769.09
2022-10-22T08:24:59.243Z,99770.16
2022-10-22T08:27:03.895Z,99773.84
2022-10-22T08:29:06.011Z,99772.66
2022-10-22T08:31:08.611Z,99771.81
2022-10-22T08:33:10.930Z,99772.34
2022-10-22T08:35:16.793Z,99772.13
2022-10-22T08:37:19.611Z,99772.69
2022-10-22T08:39:22.500Z,99768.00
2022-10-22T08:41:25.399Z,99769.50
2022-10-22T08:43:49.199Z,99769.19
2022-10-22T08:46:16.374Z,99770.97
2022-10-22T08:48:46.015Z,99769.88
2022-10-22T08:50:50.287Z,99763.88
2022-10-22T08:52:56.806Z,99771.69
2022-10-22T08:55:04.552Z,99776.59
2022-10-22T08:57:09.748Z,99761.88
2022-10-22T08:59:27.893Z,99762.13
2022-10-22T09:01:35.722Z,99767.00
2022-10-22T09:03:49.872Z,99767.78
2022-10-22T09:07:55.765Z,99758.81
2022-10-22T09:10:00.690Z,99780.28
2022-10-22T09:12:05.185Z,99766.84
2022-10-22T09:14:09.630Z,99770.22
2022-10-22T09:16:19.465Z,99772.47
2022-10-22T09:18:30.312Z,99772.13
2022-10-22T09:20:54.976Z,99774.53
2022-10-22T09:23:12.167Z,99772.09
2022-10-22T09:25:24.328Z,99757.13
2022-10-22T09:27:29.150Z,99760.84
2022-10-22T09:29:35.041Z,99763.47
2022-10-22T09:31:37.122Z,99768.44
2022-10-22T09:33:40.186Z,99772.81
2022-10-22T09:36:03.547Z,99778.16
2022-10-22T09:38:08.923Z,99787.63
2022-10-22T09:40:15.205Z,99773.41
2022-10-22T09:43:20.606Z,99766.72
2022-10-22T09:45:26.289Z,99774.34
2022-10-22T09:47:43.695Z,99771.78
2022-10-22T09:50:31.497Z,99772.66
2022-10-22T09:52:34.699Z,99766.34
2022-10-22T09:54:42.617Z,99766.00
2022-10-22T09:56:51.597Z,99759.06
2022-10-22T09:58:56.856Z,99757.72
2022-10-22T10:01:00.975Z,99753.75
2022-10-22T10:03:03.607Z,99751.63
2022-10-22T10:05:07.122Z,99756.78
2022-10-22T10:07:21.827Z,99753.53
2022-10-22T10:09:26.317Z,99752.31
2022-10-22T10:11:35.259Z,99762.03
2022-10-22T10:13:46.888Z,99745.63
2022-10-22T10:16:17.522Z,99755.44
2022-10-22T10:18:43.726Z,99749.34
2022-10-22T10:23:09.732Z,99742.88
2022-10-22T10:25:26.679Z,99741.13
2022-10-22T10:27:40.314Z,99742.50
2022-10-22T10:30:00.402Z,99734.69
2022-10-22T10:32:21.126Z,99736.28
2022-10-22T10:34:37.601Z,99736.03
2022-10-22T10:37:03.756Z,99746.97
2022-10-22T10:39:24.439Z,99740.16
2022-10-22T10:41:32.591Z,99742.72
2022-10-22T10:43:59.221Z,99749.59
2022-10-22T10:46:38.401Z,99747.34
2022-10-22T10:48:49.688Z,99740.75
2022-10-22T10:51:22.312Z,99751.31
2022-10-22T10:53:43.090Z,99737.91
2022-10-22T10:55:57.127Z,99736.41
2022-10-22T10:57:59.952Z,99732.06
2022-10-22T11:00:11.061Z,99733.31
2022-10-22T11:02:31.157Z,99730.69
2022-10-22T11:05:06.777Z,99735.41
2022-10-22T11:07:30.056Z,99722.38
2022-10-22T11:09:53.693Z,99714.78
2022-10-22T11:12:04.402Z,99712.78
2022-10-22T11:14:20.158Z,99710.16
2022-10-22T11:16:31.549Z,99702.13
2022-10-22T11:18:48.553Z,99691.28
2022-10-22T11:20:54.404Z,99706.84
2022-10-22T11:23:21.883Z,99704.22
2022-10-22T11:25:30.895Z,99701.75
2022-10-22T11:27:45.037Z,99697.13
2022-10-22T11:29:52.491Z,99700.88
2022-10-22T11:31:57.147Z,99696.16
2022-10-22T11:34:32.569Z,99698.88
2022-10-22T11:36:36.979Z,99696.16
2022-10-22T11:38:39.063Z,99700.13
2022-10-22T11:40:52.036Z,99693.53
2022-10-22T11:42:57.544Z,99685.59
2022-10-22T11:45:04.359Z,99696.03
2022-10-22T11:47:18.357Z,99687.06
2022-10-22T11:49:28.682Z,99681.72
2022-10-22T11:51:35.555Z,99693.56
2022-10-22T11:53:42.171Z,99679.88
2022-10-22T11:55:50.640Z,99678.28
2022-10-22T11:57:57.196Z,99669.19
2022-10-22T12:00:00.975Z,99671.19
2022-10-22T12:02:03.137Z,99666.69
2022-10-22T12:04:22.810Z,99671.69
2022-10-22T12:06:26.893Z,99668.94
2022-10-22T12:08:29.325Z,99659.88
2022-10-22T12:10:50.972Z,99666.72
2022-10-22T12:12:58.749Z,99676.66
2022-10-22T12:15:01.341Z,99670.19
2022-10-22T12:17:08.086Z,99666.47
2022-10-22T12:19:15.690Z,99665.72
2022-10-22T12:21:18.074Z,99659.38
2022-10-22T12:23:25.098Z,99651.19
2022-10-22T12:25:35.718Z,99650.44
2022-10-22T12:27:41.031Z,99650.56
2022-10-22T12:29:43.315Z,99652.31
2022-10-22T12:31:47.793Z,99646.09
2022-10-22T12:33:59.389Z,99637.88
2022-10-22T12:36:04.384Z,99653.16
2022-10-22T12:38:14.965Z,99650.81
2022-10-22T12:40:18.421Z,99651.56
2022-10-22T12:42:22.161Z,99646.22
2022-10-22T12:44:24.122Z,99652.56
2022-10-22T12:46:28.773Z,99643.34
2022-10-22T12:48:36.353Z,99638.75
2022-10-22T12:50:46.220Z,99642.59
2022-10-22T12:52:49.109Z,99644.38
2022-10-22T12:54:52.753Z,99637.03
2022-10-22T12:56:56.543Z,99623.34
2022-10-22T12:59:04.464Z,99623.09
2022-10-22T13:01:07.326Z,99624.09
2022-10-22T13:03:27.900Z,99620.63
2022-10-22T13:05:39.193Z,99625.34
2022-10-22T13:07:52.582Z,99617.16
2022-10-22T13:09:59.980Z,99616.28
2022-10-22T13:12:06.960Z,99618.38
2022-10-22T13:14:21.661Z,99616.28
2022-10-22T13:16:27.937Z,99608.84
2022-10-22T13:18:33.686Z,99610.81
2022-10-22T13:20:37.509Z,99604.84
2022-10-22T13:22:42.235Z,99609.81
2022-10-22T13:24:51.067Z,99611.81
2022-10-22T13:26:55.219Z,99606.09
2022-10-22T13:28:58.519Z,99607.06
2022-10-22T13:31:08.492Z,99609.09
2022-10-22T13:33:35.457Z,99618.59
2022-10-22T13:35:38.654Z,99614.03
2022-10-22T13:37:41.070Z,99604.72
2022-10-22T13:39:43.216Z,99613.03
2022-10-22T13:41:45.906Z,99610.41
2022-10-22T13:43:47.991Z,99617.75
2022-10-22T13:45:55.250Z,99606.06
2022-10-22T13:47:57.351Z,99607.81
2022-10-22T13:50:01.737Z,99602.47
2022-10-22T13:52:04.199Z,99607.06
2022-10-22T13:54:14.766Z,99605.72
2022-10-22T13:56:18.336Z,99602.22
2022-10-22T13:58:25.320Z,99600.63
2022-10-22T14:00:28.027Z,99602.47
2022-10-22T14:02:30.182Z,99597.50
2022-10-22T14:04:41.281Z,99593.03
2022-10-22T14:06:45.651Z,99600.63
2022-10-22T14:08:51.797Z,99590.19
2022-10-22T14:10:54.482Z,99595.13
2022-10-22T14:12:56.564Z,99598.00
2022-10-22T14:14:58.605Z,99596.91
2022-10-22T14:17:01.033Z,99585.34
2022-10-22T14:19:04.017Z,99592.81
2022-10-22T14:21:07.741Z,99601.00
2022-10-22T14:23:20.393Z,99601.47
2022-10-22T14:25:25.268Z,99595.75
2022-10-22T14:27:27.334Z,99589.78
2022-10-22T14:29:29.366Z,99596.50
2022-10-22T14:31:31.949Z,99589.69
2022-10-22T14:33:34.058Z,99586.94
2022-10-22T14:35:36.203Z,99595.66
2022-10-22T14:37:38.307Z,99592.16
2022-10-22T14:39:40.350Z,99586.81
2022-10-22T14:41:43.192Z,99590.41
2022-10-22T14:43:45.972Z,99582.81
2022-10-22T14:45:48.455Z,99590.81
2022-10-22T14:47:57.551Z,99586.69
2022-10-22T14:50:02.493Z,99589.69
2022-10-22T14:52:04.667Z,99587.94
2022-10-22T14:54:06.766Z,99589.69
2022-10-22T14:56:18.375Z,99576.41
2022-10-22T14:58:20.300Z,99581.84
2022-10-22T15:00:22.361Z,99575.75
2022-10-22T15:02:27.577Z,99575.88
2022-10-22T15:04:30.706Z,99574.28
2022-10-22T15:06:32.947Z,99575.38
2022-10-22T15:08:35.468Z,99568.16
2022-10-22T15:10:37.873Z,99559.47
2022-10-22T15:12:40.206Z,99549.66
2022-10-22T15:14:42.505Z,99554.59
2022-10-22T15:16:44.653Z,99557.56
2022-10-22T15:18:46.687Z,99550.50
2022-10-22T15:20:59.148Z,99543.31
2022-10-22T15:23:01.174Z,99541.44
2022-10-22T15:25:07.529Z,99544.28
2022-10-22T15:27:09.739Z,99548.38
2022-10-22T15:29:11.718Z,99544.78
2022-10-22T15:31:14.901Z,99540.44
2022-10-22T15:33:16.882Z,99536.44
2022-10-22T15:35:18.932Z,99538.31
2022-10-22T15:37:21.649Z,99544.63
2022-10-22T15:39:24.835Z,99542.03
2022-10-22T15:41:26.922Z,99539.41
2022-10-22T15:43:28.933Z,99536.94
2022-10-22T15:45:31.072Z,99533.44
2022-10-22T15:47:33.705Z,99534.31
2022-10-22T15:49:37.811Z,99543.34
2022-10-22T15:51:40.678Z,99545.56
2022-10-22T15:53:42.942Z,99545.81
2022-10-22T15:56:35.431Z,99541.97
2022-10-22T15:58:37.578Z,99535.50
2022-10-22T16:00:39.555Z,99545.66
2022-10-22T16:02:41.599Z,99533.13
2022-10-22T16:04:43.599Z,99528.69
2022-10-22T16:06:48.288Z,99533.38
2022-10-22T16:08:50.463Z,99541.53
2022-10-22T16:10:53.814Z,99533.59
2022-10-22T16:12:57.936Z,99550.22
2022-10-22T16:14:59.853Z,99544.09
2022-10-22T16:17:02.058Z,99542.38
2022-10-22T16:19:04.327Z,99546.81
2022-10-22T16:33:06.988Z,99550.91
2022-10-22T16:35:09.498Z,99546.31
2022-10-22T16:37:11.856Z,99546.81
2022-10-22T16:39:14.082Z,99559.00
2022-10-22T16:41:19.057Z,99568.28
2022-10-22T16:43:21.059Z,99566.31
2022-10-22T16:45:23.058Z,99567.09
2022-10-22T16:47:25.248Z,99566.75
2022-10-22T16:49:27.392Z,99563.63
2022-10-22T16:51:29.421Z,99568.88
2022-10-22T16:53:31.597Z,99558.50
2022-10-22T16:55:37.673Z,99576.56
2022-10-22T16:57:39.776Z,99582.13
2022-10-22T16:59:42.069Z,99575.97
2022-10-22T17:01:44.144Z,99570.50
2022-10-22T17:03:46.770Z,99559.81
2022-10-22T17:05:48.900Z,99568.88
2022-10-22T17:07:51.256Z,99575.66
2022-10-22T17:09:53.603Z,99561.28
2022-10-22T17:11:56.012Z,99555.06
2022-10-22T17:13:58.052Z,99555.69
2022-10-22T17:16:05.164Z,99557.66
2022-10-22T17:18:07.481Z,99548.88
2022-10-22T17:20:10.789Z,99545.28
2022-10-22T17:22:16.150Z,99549.47
2022-10-22T17:24:21.179Z,99548.75
2022-10-22T17:26:24.772Z,99546.38
2022-10-22T17:28:27.950Z,99541.03
2022-10-22T17:30:30.608Z,99535.22
2022-10-22T17:32:37.286Z,99526.94
2022-10-22T17:34:41.896Z,99526.19
2022-10-22T17:36:45.936Z,99542.03
2022-10-22T17:38:50.772Z,99538.44
2022-10-22T17:40:53.338Z,99538.78
2022-10-22T17:42:55.415Z,99538.78
2022-10-22T17:44:58.134Z,99543.72
2022-10-22T17:47:01.288Z,99548.31
2022-10-22T17:49:12.417Z,99538.38
2022-10-22T17:51:14.813Z,99534.16
2022-10-22T17:53:17.112Z,99535.88
2022-10-22T17:55:19.292Z,99533.06
2022-10-22T17:57:21.295Z,99531.44
2022-10-22T17:59:23.117Z,99533.78
2022-10-22T18:01:25.456Z,99529.34
2022-10-22T18:03:28.064Z,99531.06
2022-10-22T18:05:30.368Z,99529.44
2022-10-22T18:07:32.417Z,99522.38
2022-10-22T18:09:34.925Z,99527.59
2022-10-22T18:11:37.883Z,99520.53
2022-10-22T18:13:40.099Z,99524.47
2022-10-22T18:15:42.300Z,99520.09
2022-10-22T18:17:47.259Z,99517.69
2022-10-22T18:19:49.675Z,99516.59
2022-10-22T18:21:52.082Z,99521.31
2022-10-22T18:23:54.438Z,99529.50
2022-10-22T18:25:56.497Z,99515.13
2022-10-22T18:27:58.528Z,99520.81
2022-10-22T18:30:00.593Z,99513.88
2022-10-22T18:32:08.337Z,99512.47
2022-10-22T18:34:16.587Z,99505.66
2022-10-22T18:36:24.016Z,99504.31
2022-10-22T18:38:26.181Z,99516.75
2022-10-22T18:40:30.493Z,99520.09
2022-10-22T18:42:37.780Z,99519.97
2022-10-22T18:44:41.915Z,99529.03
2022-10-22T18:46:44.090Z,99525.44
2022-10-22T18:48:47.593Z,99526.19
2022-10-22T18:50:59.531Z,99533.59
2022-10-22T18:53:01.418Z,99545.72
2022-10-22T18:55:03.679Z,99543.59
2022-10-22T18:57:08.207Z,99541.44
2022-10-22T18:59:21.954Z,99545.28
2022-10-22T19:01:27.902Z,99545.06
2022-10-22T19:03:29.663Z,99558.91
2022-10-22T19:05:31.943Z,99552.78
2022-10-22T19:07:36.487Z,99565.56
2022-10-22T19:09:39.995Z,99561.97
2022-10-22T19:11:44.690Z,99566.31
2022-10-22T19:13:46.565Z,99574.72
2022-10-22T19:15:48.437Z,99570.38
2022-10-22T19:17:50.331Z,99577.66
2022-10-22T19:19:52.283Z,99587.69
2022-10-22T19:21:56.588Z,99599.69
2022-10-22T19:24:00.227Z,99596.19
2022-10-22T19:26:10.299Z,99608.97
2022-10-22T19:28:12.143Z,99610.06
2022-10-22T19:30:14.547Z,99610.28
2022-10-22T19:32:19.843Z,99618.69
2022-10-22T19:34:22.011Z,99625.00
2022-10-22T19:36:25.415Z,99627.22
2022-10-22T19:38:29.829Z,99625.47
2022-10-22T19:40:31.555Z,99636.47
2022-10-22T19:42:33.679Z,99643.00
2022-10-22T19:44:35.800Z,99644.00
2022-10-22T19:46:38.120Z,99643.25
2022-10-22T19:48:40.425Z,99644.56
2022-10-22T19:50:42.767Z,99646.41
2022-10-22T19:52:44.711Z,99643.91
2022-10-22T19:54:47.016Z,99649.69
2022-10-22T19:56:49.036Z,99652.53
2022-10-22T19:58:50.880Z,99647.31
2022-10-22T20:00:53.046Z,99655.03
2022-10-22T20:02:58.604Z,99659.16
2022-10-22T20:05:00.503Z,99671.06
2022-10-22T20:07:02.403Z,99669.28
2022-10-22T20:09:04.518Z,99675.72
2022-10-22T20:11:10.903Z,99671.28
2022-10-22T20:13:12.766Z,99683.91
2022-10-22T20:15:14.792Z,99679.31
2022-10-22T20:17:16.846Z,99683.03
2022-10-22T20:19:19.325Z,99679.53
2022-10-22T20:21:22.164Z,99681.41
2022-10-22T20:23:24.558Z,99692.50
2022-10-22T20:25:26.843Z,99689.97
2022-10-22T20:27:29.072Z,99697.28
2022-10-22T20:29:31.047Z,99693.78
2022-10-22T20:31:33.296Z,99694.88
2022-10-22T20:33:35.422Z,99697.59
2022-10-22T20:35:37.615Z,99693.22
2022-10-22T20:37:39.616Z,99689.56
2022-10-22T20:40:51.275Z,99682.75
2022-10-22T20:42:53.525Z,99697.22
2022-10-22T20:44:55.508Z,99680.03
2022-10-22T20:49:05.536Z,99697.75
2022-10-22T20:51:07.629Z,99699.06
2022-10-22T20:53:13.368Z,99696.34
2022-10-22T20:57:18.986Z,99701.69
2022-10-22T20:59:21.451Z,99705.03
2022-10-22T21:01:24.372Z,99699.50
2022-10-22T21:11:25.997Z,99710.34
2022-10-22T21:13:28.154Z,99720.53
2022-10-22T21:15:30.241Z,99723.38
2022-10-22T21:17:33.139Z,99725.53
2022-10-22T21:19:35.148Z,99730.19
2022-10-22T21:21:37.094Z,99727.38
2022-10-22T21:23:40.225Z,99731.06
2022-10-22T21:25:52.489Z,99745.44
2022-10-22T21:27:54.641Z,99741.94
2022-10-22T21:29:56.743Z,99752.03
2022-10-22T21:31:59.346Z,99751.19
2022-10-22T21:34:01.504Z,99763.03
2022-10-22T21:36:05.524Z,99774.88
2022-10-22T21:38:45.567Z,99775.50
2022-10-22T21:40:48.749Z,99781.50
2022-10-22T21:42:51.279Z,99786.09
2022-10-22T21:44:53.572Z,99786.97
2022-10-22T21:46:55.953Z,99790.84
2022-10-22T21:49:02.207Z,99787.34
2022-10-22T21:51:16.132Z,99795.25
2022-10-22T21:53:18.300Z,99799.41
2022-10-22T21:55:20.233Z,99795.25
2022-10-22T21:58:46.651Z,99777.78
2022-10-22T22:00:54.582Z,99770.50
2022-10-22T22:02:56.690Z,99762.44
2022-10-22T22:04:59.244Z,99776.03
2022-10-22T22:07:01.530Z,99782.44
2022-10-22T22:09:05.506Z,99794.97
2022-10-22T22:11:14.235Z,99808.56
2022-10-22T22:13:17.408Z,99806.91
2022-10-22T22:15:20.701Z,99805.13
2022-10-22T22:17:22.927Z,99803.63
2022-10-22T22:19:25.149Z,99818.34
2022-10-22T22:21:27.632Z,99820.50
2022-10-22T22:23:30.245Z,99831.22
2022-10-22T22:25:35.397Z,99826.28
2022-10-22T22:27:37.565Z,99820.84
2022-10-22T22:29:39.971Z,99831.81
2022-10-22T22:31:43.168Z,99842.69
2022-10-22T22:33:45.797Z,99830.44
2022-10-22T22:35:47.923Z,99832.31
2022-10-22T22:37:52.254Z,99838.41
2022-10-22T22:39:54.803Z,99818.53
2022-10-22T22:41:56.964Z,99821.13
2022-10-22T22:43:59.621Z,99824.81
2022-10-22T22:46:08.879Z,99827.63
2022-10-22T22:48:10.991Z,99835.03
2022-10-22T22:50:13.007Z,99839.94
2022-10-22T22:52:15.301Z,99847.41
2022-10-22T22:54:17.440Z,99849.53
2022-10-22T22:56:24.858Z,99843.31
2022-10-22T22:58:27.899Z,99845.06
2022-10-22T23:04:23.868Z,99840.28
2022-10-22T23:06:28.373Z,99843.09
2022-10-22T23:08:30.716Z,99843.78
2022-10-22T23:10:32.950Z,99847.47
2022-10-22T23:12:34.966Z,99857.66
2022-10-22T23:14:36.873Z,99851.16
2022-10-22T23:16:42.208Z,99857.44
2022-10-22T23:18:46.083Z,99855.44
2022-10-22T23:20:48.103Z,99847.56
2022-10-22T23:22:50.378Z,99848.63
2022-10-22T23:24:52.456Z,99860.63
2022-10-22T23:26:55.935Z,99859.16
2022-10-22T23:29:20.906Z,99869.88
2022-10-22T23:31:23.121Z,99850.41
2022-10-22T23:33:25.163Z,99862.06
2022-10-22T23:35:27.047Z,99870.88
2022-10-22T23:37:29.226Z,99868.97
2022-10-22T23:39:31.372Z,99870.69
2022-10-22T23:41:33.774Z,99873.53
2022-10-22T23:43:36.587Z,99880.50
2022-10-22T23:45:38.779Z,99877.97
2022-10-22T23:47:41.105Z,99884.47
2022-10-22T23:49:43.535Z,99885.06
2022-10-22T23:51:45.656Z,99886.03
2022-10-22T23:53:55.951Z,99887.00
2022-10-22T23:55:58.244Z,99888.16
2022-10-22T23:58:00.723Z,99893.41
